^^
Station Historical Data
Daily Summary for May 13, 2017 Units:  Metric    English   Both
« Previous Day
Next Day »
Daily Weekly Monthly Yearly Custom
  High: Low: Average:
Temperature: 24.2 °C 10.3 °C 15.7 °C
Dew Point: 2.6 °C -1.9 °C 0.7 °C
Humidity: 51% 23% 37%
Wind Speed: 9.7km/h 0km/h 0.5km/h
Wind Gust: 11.3km/h - -
Wind- - ENE
Pressure: 1021.6 hPa 1016.1 hPa -
Precipitation: 0 mm    
Historical Graphs
 
 
Tabular Data for May 13, 2017
Time Temperature Dew Point Pressure Wind Wind Speed Wind Gust Humidity Rainfall Rate (Hourly) solar Conditions
00:04 16.2 °C 0.3 °C 1019.5 hPa Calm     34% 0 mm 0.0 W/m2
00:14 16.3 °C 0.4 °C 1019.5 hPa Calm   9.7 km/h 34% 0 mm 0.0 W/m2
00:19 16.4 °C 0.5 °C 1019.5 hPa Calm     34% 0 mm 0.0 W/m2
00:25 16.4 °C 0.5 °C 1019.5 hPa Calm   4.8 km/h 34% 0 mm 0.0 W/m2
00:30 16.4 °C 0.5 °C 1019.5 hPa Calm     34% 0 mm 0.0 W/m2
00:35 16.4 °C 0.9 °C 1019.9 hPa ESE 7.9 km/h 8 km/h 35% 0 mm 0.0 W/m2
00:40 16.5 °C 1 °C 1019.9 hPa Calm     35% 0 mm 0.0 W/m2
00:45 16.6 °C 1.1 °C 1019.9 hPa Calm   6.4 km/h 35% 0 mm 0.0 W/m2
00:50 16.7 °C 1.2 °C 1019.9 hPa Calm     35% 0 mm 0.0 W/m2
00:55 16.8 °C 1.2 °C 1019.9 hPa Calm     35% 0 mm 0.0 W/m2
01:01 16.8 °C 1.2 °C 1019.9 hPa Calm     35% 0 mm 0.0 W/m2
01:11 16.3 °C 1.2 °C 1019.9 hPa Calm     36% 0 mm 0.0 W/m2
01:21 15.7 °C 1.4 °C 1019.9 hPa Calm     38% 0 mm 0.0 W/m2
01:27 15.6 °C 1.3 °C 1019.9 hPa Calm     38% 0 mm 0.0 W/m2
01:32 15.5 °C 1.6 °C 1019.9 hPa Calm     39% 0 mm 0.0 W/m2
01:37 15.4 °C 1.5 °C 1019.9 hPa ESE 4.7 km/h 9.7 km/h 39% 0 mm 0.0 W/m2
01:42 15.6 °C 1.7 °C 1019.5 hPa ESE 9.7 km/h 11.3 km/h 39% 0 mm 0.0 W/m2
01:52 15.6 °C 1.3 °C 1019.5 hPa Calm   8 km/h 38% 0 mm 0.0 W/m2
02:03 15.3 °C 1.4 °C 1019.5 hPa Calm     39% 0 mm 0.0 W/m2
02:08 15.1 °C 1.2 °C 1019.5 hPa Calm     39% 0 mm 0.0 W/m2
02:13 14.9 °C 1.4 °C 1019.5 hPa Calm     40% 0 mm 0.0 W/m2
02:18 14.8 °C 1.3 °C 1019.5 hPa Calm     40% 0 mm 0.0 W/m2
02:23 14.9 °C 1.4 °C 1019.5 hPa Calm     40% 0 mm 0.0 W/m2
02:28 15.2 °C 1.3 °C 1019.5 hPa ESE 1.4 km/h 4.8 km/h 39% 0 mm 0.0 W/m2
02:33 15.4 °C 1.5 °C 1019.5 hPa Calm     39% 0 mm 0.0 W/m2
02:39 15.4 °C 1.5 °C 1019.5 hPa Calm     39% 0 mm 0.0 W/m2
02:45 15.3 °C 1.4 °C 1019.5 hPa Calm     39% 0 mm 0.0 W/m2
02:50 15.2 °C 1.3 °C 1019.5 hPa Calm     39% 0 mm 0.0 W/m2
02:55 15 °C 1.5 °C 1019.5 hPa Calm     40% 0 mm 0.0 W/m2
03:00 14.8 °C 1.3 °C 1019.5 hPa Calm     40% 0 mm 0.0 W/m2
03:05 14.8 °C 1.3 °C 1019.5 hPa Calm     40% 0 mm 0.0 W/m2
03:16 14.7 °C 0.9 °C 1019.2 hPa Calm     39% 0 mm 0.0 W/m2
03:21 14.4 °C 1 °C 1019.5 hPa Calm     40% 0 mm 0.0 W/m2
03:26 14.2 °C 1.1 °C 1019.5 hPa Calm     41% 0 mm 0.0 W/m2
03:31 14 °C 0.9 °C 1019.5 hPa Calm     41% 0 mm 0.0 W/m2
03:37 14 °C 1.3 °C 1019.5 hPa Calm     42% 0 mm 0.0 W/m2
03:42 13.9 °C 1.2 °C 1019.5 hPa Calm     42% 0 mm 0.0 W/m2
03:47 13.7 °C 1 °C 1019.5 hPa Calm     42% 0 mm 0.0 W/m2
03:52 13.7 °C 1 °C 1019.5 hPa Calm     42% 0 mm 0.0 W/m2
03:58 13.6 °C 0.9 °C 1019.5 hPa Calm     42% 0 mm 0.0 W/m2
04:03 13.4 °C 0.7 °C 1019.5 hPa Calm     42% 0 mm 0.0 W/m2
04:13 13 °C 0.7 °C 1019.5 hPa Calm     43% 0 mm 0.0 W/m2
04:18 12.8 °C 0.8 °C 1019.5 hPa Calm     44% 0 mm 0.0 W/m2
04:23 12.8 °C 1.2 °C 1019.5 hPa Calm     45% 0 mm 0.0 W/m2
04:28 12.9 °C 0.9 °C 1019.5 hPa Calm     44% 0 mm 0.0 W/m2
04:33 12.8 °C 0.5 °C 1019.5 hPa Calm     43% 0 mm 0.0 W/m2
04:39 12.4 °C 0.5 °C 1019.5 hPa Calm     44% 0 mm 0.0 W/m2
04:44 12.2 °C 0.6 °C 1019.5 hPa Calm     45% 0 mm 0.0 W/m2
04:49 11.9 °C 0.6 °C 1019.5 hPa Calm     46% 0 mm 0.0 W/m2
04:54 11.7 °C 0.8 °C 1019.5 hPa Calm     47% 0 mm 0.0 W/m2
04:59 11.7 °C 0.8 °C 1019.5 hPa Calm     47% 0 mm 0.0 W/m2
05:09 11.4 °C 1.1 °C 1019.9 hPa Calm     49% 0 mm 0.0 W/m2
05:24 11.1 °C 0.8 °C 1019.9 hPa Calm     49% 0 mm 0.0 W/m2
05:33 11.1 °C 0.8 °C 1019.9 hPa Calm     49% 0 mm 0.0 W/m2
05:40 11.1 °C 0.8 °C 1019.9 hPa Calm     49% 0 mm 0.0 W/m2
05:50 10.8 °C 0.8 °C 1020.2 hPa Calm     50% 0 mm 0.0 W/m2
06:06 10.5 °C 0.5 °C 1020.5 hPa Calm     50% 0 mm 0.0 W/m2
06:26 10.4 °C 0.7 °C 1020.5 hPa Calm     51% 0 mm 5.0 W/m2
06:32 10.5 °C 0.8 °C 1020.5 hPa Calm     51% 0 mm 9.0 W/m2
06:40 10.4 °C 0.7 °C 1020.5 hPa Calm     51% 0 mm 11.0 W/m2
06:47 10.3 °C 0.6 °C 1020.5 hPa Calm     51% 0 mm 14.0 W/m2
07:09 11.1 °C 1.3 °C 1020.5 hPa Calm     51% 0 mm 54.0 W/m2
07:23 12.1 °C 1.4 °C 1020.9 hPa Calm     48% 0 mm 121.0 W/m2
07:34 12.7 °C 1.4 °C 1020.9 hPa Calm     46% 0 mm 165.0 W/m2
08:04 14.4 °C 1.6 °C 1021.2 hPa Calm     42% 0 mm 269.0 W/m2
08:14 15.4 °C 1.9 °C 1021.2 hPa Calm     40% 0 mm 315.0 W/m2
08:23 16.1 °C 2.1 °C 1021.2 hPa Calm     39% 0 mm 343.0 W/m2
08:33 16.2 °C 2.6 °C 1021.2 hPa Calm     40% 0 mm 373.0 W/m2
08:55 16.8 °C 2.4 °C 1021.6 hPa Calm     38% 0 mm 425.0 W/m2
09:06 17.2 °C 2 °C 1021.6 hPa Calm     36% 0 mm 452.0 W/m2
09:21 17.5 °C 1.9 °C 1021.6 hPa Calm     35% 0 mm 489.0 W/m2
09:33 17.7 °C 1.2 °C 1021.6 hPa ESE 1.4 km/h 3.2 km/h 33% 0 mm 520.0 W/m2
15:47 24 °C 1.6 °C 1016.1 hPa Calm     23% 0 mm 237.0 W/m2
15:56 24.1 °C 1.7 °C 1016.1 hPa Calm   9.7 km/h 23% 0 mm 202.0 W/m2
16:06 24.2 °C 1.8 °C 1016.1 hPa Calm     23% 0 mm 158.0 W/m2
16:17 24.1 °C 1.7 °C 1016.1 hPa Calm     23% 0 mm 121.0 W/m2
16:27 24 °C 1.6 °C 1016.1 hPa Calm     23% 0 mm 84.0 W/m2
16:39 23.7 °C 1.9 °C 1016.1 hPa Calm     24% 0 mm 53.0 W/m2
16:52 23.8 °C 2 °C 1016.1 hPa Calm     24% 0 mm 14.0 W/m2
17:01 23.3 °C 1.6 °C 1016.1 hPa Calm     24% 0 mm 9.0 W/m2
17:09 22.7 °C 2.2 °C 1016.1 hPa Calm     26% 0 mm 0.0 W/m2
17:15 22.4 °C 2 °C 1016.5 hPa Calm     26% 0 mm 0.0 W/m2
17:21 22.1 °C 1.7 °C 1016.5 hPa Calm     26% 0 mm 0.0 W/m2
17:28 21.9 °C 1.5 °C 1016.5 hPa Calm     26% 0 mm 0.0 W/m2
17:52 20.9 °C 1.2 °C 1016.5 hPa Calm     27% 0 mm 0.0 W/m2
18:07 19.8 °C 0.8 °C 1016.8 hPa Calm     28% 0 mm 0.0 W/m2
18:37 18.3 °C 0 °C 1016.8 hPa Calm     29% 0 mm 0.0 W/m2
19:02 17.1 °C -0.6 °C 1016.8 hPa Calm     30% 0 mm 0.0 W/m2
19:13 16.3 °C -0.9 °C 1016.8 hPa Calm     31% 0 mm 0.0 W/m2
19:38 16.1 °C 0.2 °C 1016.8 hPa Calm     34% 0 mm 0.0 W/m2
19:49 16.1 °C -0.2 °C 1016.8 hPa Calm     33% 0 mm 0.0 W/m2
19:56 16.2 °C 0.3 °C 1017.2 hPa Calm     34% 0 mm 0.0 W/m2
20:05 16.3 °C 0 °C 1017.2 hPa Calm     33% 0 mm 0.0 W/m2
20:15 16 °C 0.1 °C 1017.2 hPa Calm     34% 0 mm 0.0 W/m2
20:26 15.7 °C 0.3 °C 1017.2 hPa Calm     35% 0 mm 0.0 W/m2
20:31 15.6 °C 0.2 °C 1017.5 hPa Calm     35% 0 mm 0.0 W/m2
20:40 15.5 °C 0.1 °C 1017.5 hPa Calm     35% 0 mm 0.0 W/m2
20:46 15.4 °C 0 °C 1017.5 hPa Calm     35% 0 mm 0.0 W/m2
20:56 15.1 °C 0.1 °C 1017.5 hPa Calm     36% 0 mm 0.0 W/m2
21:01 15 °C 0 °C 1017.5 hPa Calm     36% 0 mm 0.0 W/m2
21:13 15.1 °C 0.1 °C 1017.8 hPa Calm     36% 0 mm 0.0 W/m2
21:22 14.8 °C -0.1 °C 1017.8 hPa Calm     36% 0 mm 0.0 W/m2
21:29 14.7 °C 0.2 °C 1017.8 hPa Calm     37% 0 mm 0.0 W/m2
21:38 15.1 °C 0.1 °C 1017.8 hPa Calm     36% 0 mm 0.0 W/m2
21:48 14.7 °C -0.2 °C 1017.8 hPa Calm   6.4 km/h 36% 0 mm 0.0 W/m2
21:59 15.8 °C -0.4 °C 1017.8 hPa Calm     33% 0 mm 0.0 W/m2
22:09 15.7 °C -0.5 °C 1017.8 hPa Calm     33% 0 mm 0.0 W/m2
22:14 15.5 °C -0.3 °C 1018.2 hPa Calm     34% 0 mm 0.0 W/m2
22:19 15.4 °C -0.8 °C 1017.8 hPa Calm   6.4 km/h 33% 0 mm 0.0 W/m2
22:25 15.8 °C -0.9 °C 1018.2 hPa Calm     32% 0 mm 0.0 W/m2
22:30 16.1 °C -0.6 °C 1018.2 hPa Calm     32% 0 mm 0.0 W/m2
22:35 16.1 °C -1 °C 1018.2 hPa Calm     31% 0 mm 0.0 W/m2
22:40 16 °C -1.1 °C 1018.2 hPa Calm     31% 0 mm 0.0 W/m2
22:46 15.9 °C -1.2 °C 1018.2 hPa Calm     31% 0 mm 0.0 W/m2
22:51 16.2 °C -1 °C 1018.2 hPa Calm     31% 0 mm 0.0 W/m2
22:56 16.3 °C -0.9 °C 1018.2 hPa Calm     31% 0 mm 0.0 W/m2
23:06 16.3 °C -1.3 °C 1018.2 hPa Calm     30% 0 mm 0.0 W/m2
23:11 16.3 °C -1.3 °C 1018.5 hPa NE 6.4 km/h 9.7 km/h 30% 0 mm 0.0 W/m2
23:16 16.4 °C -1.2 °C 1018.5 hPa NE 6.4 km/h 9.7 km/h 30% 0 mm 0.0 W/m2
23:21 16.6 °C -1.1 °C 1018.5 hPa NE 1.4 km/h 9.7 km/h 30% 0 mm 0.0 W/m2
23:26 16.4 °C -1.2 °C 1018.5 hPa NE 3.2 km/h 8 km/h 30% 0 mm 0.0 W/m2
23:36 15.4 °C -1.7 °C 1018.5 hPa Calm   8 km/h 31% 0 mm 0.0 W/m2
23:46 14.7 °C -1.8 °C 1018.5 hPa NE 6.4 km/h 8 km/h 32% 0 mm 0.0 W/m2
23:51 14.4 °C -1.7 °C 1018.8 hPa NE 7.9 km/h 9.7 km/h 33% 0 mm 0.0 W/m2
23:56 14.2 °C -1.9 °C 1018.5 hPa NE 6.4 km/h 11.3 km/h 33% 0 mm 0.0 W/m2
Canyon Roadhouse, Fishriver Canyon, Namibia
Compliments of Weather Underground - 2.25 mb